sensor_id;sensor_type;location;lat;lon;timestamp;P1;durP1;ratioP1;P2;durP2;ratioP2
6376;SDS011;3221;48.858;10.128;2023-05-16T00:00:38;9.50;;;8.30;;
6376;SDS011;3221;48.858;10.128;2023-05-16T00:03:05;10.00;;;7.67;;
6376;SDS011;3221;48.858;10.128;2023-05-16T00:05:32;10.87;;;8.70;;
6376;SDS011;3221;48.858;10.128;2023-05-16T00:07:59;9.57;;;8.50;;
6376;SDS011;3221;48.858;10.128;2023-05-16T00:10:26;9.87;;;8.87;;
6376;SDS011;3221;48.858;10.128;2023-05-16T00:12:53;9.50;;;8.40;;
6376;SDS011;3221;48.858;10.128;2023-05-16T00:15:21;10.90;;;8.63;;
6376;SDS011;3221;48.858;10.128;2023-05-16T00:17:50;10.27;;;8.97;;
6376;SDS011;3221;48.858;10.128;2023-05-16T00:20:17;10.80;;;9.30;;
6376;SDS011;3221;48.858;10.128;2023-05-16T00:22:44;10.23;;;8.73;;
6376;SDS011;3221;48.858;10.128;2023-05-16T00:25:11;9.10;;;8.20;;
6376;SDS011;3221;48.858;10.128;2023-05-16T00:27:38;9.47;;;8.33;;
6376;SDS011;3221;48.858;10.128;2023-05-16T00:30:05;11.13;;;9.23;;
6376;SDS011;3221;48.858;10.128;2023-05-16T00:32:32;11.07;;;9.83;;
6376;SDS011;3221;48.858;10.128;2023-05-16T00:34:59;10.40;;;9.30;;
6376;SDS011;3221;48.858;10.128;2023-05-16T00:37:26;13.03;;;9.27;;
6376;SDS011;3221;48.858;10.128;2023-05-16T00:39:53;12.20;;;9.30;;
6376;SDS011;3221;48.858;10.128;2023-05-16T00:42:21;9.43;;;8.43;;
6376;SDS011;3221;48.858;10.128;2023-05-16T00:44:47;11.20;;;9.30;;
6376;SDS011;3221;48.858;10.128;2023-05-16T00:47:15;11.83;;;9.97;;
6376;SDS011;3221;48.858;10.128;2023-05-16T00:49:42;11.17;;;9.47;;
6376;SDS011;3221;48.858;10.128;2023-05-16T00:52:10;11.67;;;9.60;;
6376;SDS011;3221;48.858;10.128;2023-05-16T00:54:38;11.33;;;9.77;;
6376;SDS011;3221;48.858;10.128;2023-05-16T00:57:08;12.43;;;10.60;;
6376;SDS011;3221;48.858;10.128;2023-05-16T00:59:35;12.07;;;10.03;;
6376;SDS011;3221;48.858;10.128;2023-05-16T01:02:02;11.13;;;9.13;;
6376;SDS011;3221;48.858;10.128;2023-05-16T01:04:29;12.57;;;9.70;;
6376;SDS011;3221;48.858;10.128;2023-05-16T01:06:59;12.47;;;9.97;;
6376;SDS011;3221;48.858;10.128;2023-05-16T01:09:26;11.70;;;9.53;;
6376;SDS011;3221;48.858;10.128;2023-05-16T01:12:01;13.17;;;9.63;;
6376;SDS011;3221;48.858;10.128;2023-05-16T01:17:33;12.47;;;9.27;;
6376;SDS011;3221;48.858;10.128;2023-05-16T01:28:14;13.23;;;9.87;;
6376;SDS011;3221;48.858;10.128;2023-05-16T01:30:42;10.90;;;9.73;;
6376;SDS011;3221;48.858;10.128;2023-05-16T01:33:10;11.20;;;9.60;;
6376;SDS011;3221;48.858;10.128;2023-05-16T01:35:57;13.00;;;10.47;;
6376;SDS011;3221;48.858;10.128;2023-05-16T01:44:16;11.10;;;9.90;;
6376;SDS011;3221;48.858;10.128;2023-05-16T01:46:48;12.47;;;10.60;;
6376;SDS011;3221;48.858;10.128;2023-05-16T01:49:34;11.80;;;10.60;;
6376;SDS011;3221;48.858;10.128;2023-05-16T01:52:13;12.00;;;10.03;;
6376;SDS011;3221;48.858;10.128;2023-05-16T01:54:46;13.53;;;10.37;;
6376;SDS011;3221;48.858;10.128;2023-05-16T01:57:19;12.53;;;10.73;;
6376;SDS011;3221;48.858;10.128;2023-05-16T01:59:51;11.40;;;9.80;;
6376;SDS011;3221;48.858;10.128;2023-05-16T02:02:19;13.73;;;10.17;;
6376;SDS011;3221;48.858;10.128;2023-05-16T02:04:46;11.40;;;10.17;;
6376;SDS011;3221;48.858;10.128;2023-05-16T02:07:14;12.43;;;10.40;;
6376;SDS011;3221;48.858;10.128;2023-05-16T02:09:43;12.43;;;10.20;;
6376;SDS011;3221;48.858;10.128;2023-05-16T02:12:10;12.60;;;10.50;;
6376;SDS011;3221;48.858;10.128;2023-05-16T02:14:37;11.53;;;10.33;;
6376;SDS011;3221;48.858;10.128;2023-05-16T02:17:04;11.93;;;10.23;;
6376;SDS011;3221;48.858;10.128;2023-05-16T02:19:32;11.80;;;10.07;;
6376;SDS011;3221;48.858;10.128;2023-05-16T02:21:59;11.17;;;9.93;;
6376;SDS011;3221;48.858;10.128;2023-05-16T02:24:26;14.33;;;11.57;;
6376;SDS011;3221;48.858;10.128;2023-05-16T02:26:54;13.80;;;10.80;;
6376;SDS011;3221;48.858;10.128;2023-05-16T02:29:21;21.70;;;11.40;;
6376;SDS011;3221;48.858;10.128;2023-05-16T02:31:47;13.93;;;10.70;;
6376;SDS011;3221;48.858;10.128;2023-05-16T02:34:14;12.53;;;10.60;;
6376;SDS011;3221;48.858;10.128;2023-05-16T02:36:42;12.67;;;10.87;;
6376;SDS011;3221;48.858;10.128;2023-05-16T02:39:08;14.00;;;11.73;;
6376;SDS011;3221;48.858;10.128;2023-05-16T02:41:36;17.00;;;12.57;;
6376;SDS011;3221;48.858;10.128;2023-05-16T02:44:03;17.43;;;11.90;;
6376;SDS011;3221;48.858;10.128;2023-05-16T02:46:32;13.47;;;11.17;;
6376;SDS011;3221;48.858;10.128;2023-05-16T02:49:02;14.60;;;11.10;;
6376;SDS011;3221;48.858;10.128;2023-05-16T02:51:29;12.83;;;10.87;;
6376;SDS011;3221;48.858;10.128;2023-05-16T02:53:56;13.37;;;11.07;;
6376;SDS011;3221;48.858;10.128;2023-05-16T02:56:25;12.80;;;11.37;;
6376;SDS011;3221;48.858;10.128;2023-05-16T02:58:53;15.33;;;12.07;;
6376;SDS011;3221;48.858;10.128;2023-05-16T03:01:21;12.87;;;11.20;;
6376;SDS011;3221;48.858;10.128;2023-05-16T03:03:48;13.90;;;11.97;;
6376;SDS011;3221;48.858;10.128;2023-05-16T03:06:16;15.27;;;11.73;;
6376;SDS011;3221;48.858;10.128;2023-05-16T03:08:43;16.63;;;12.57;;
6376;SDS011;3221;48.858;10.128;2023-05-16T03:11:10;14.50;;;12.43;;
6376;SDS011;3221;48.858;10.128;2023-05-16T03:13:38;13.47;;;12.07;;
6376;SDS011;3221;48.858;10.128;2023-05-16T03:16:07;15.73;;;13.43;;
6376;SDS011;3221;48.858;10.128;2023-05-16T03:18:34;14.87;;;11.97;;
6376;SDS011;3221;48.858;10.128;2023-05-16T03:21:01;16.83;;;13.33;;
6376;SDS011;3221;48.858;10.128;2023-05-16T03:23:28;14.30;;;12.30;;
6376;SDS011;3221;48.858;10.128;2023-05-16T03:25:55;16.70;;;13.90;;
6376;SDS011;3221;48.858;10.128;2023-05-16T03:28:22;16.43;;;12.90;;
6376;SDS011;3221;48.858;10.128;2023-05-16T03:30:49;16.17;;;12.47;;
6376;SDS011;3221;48.858;10.128;2023-05-16T03:33:16;16.43;;;13.87;;
6376;SDS011;3221;48.858;10.128;2023-05-16T03:35:44;15.97;;;13.00;;
6376;SDS011;3221;48.858;10.128;2023-05-16T03:38:11;19.77;;;13.83;;
6376;SDS011;3221;48.858;10.128;2023-05-16T03:40:42;17.47;;;14.27;;
6376;SDS011;3221;48.858;10.128;2023-05-16T03:43:09;15.37;;;12.97;;
6376;SDS011;3221;48.858;10.128;2023-05-16T03:45:36;16.37;;;12.70;;
6376;SDS011;3221;48.858;10.128;2023-05-16T03:48:03;15.60;;;13.20;;
6376;SDS011;3221;48.858;10.128;2023-05-16T03:50:30;16.00;;;13.73;;
6376;SDS011;3221;48.858;10.128;2023-05-16T03:52:57;17.47;;;13.50;;
6376;SDS011;3221;48.858;10.128;2023-05-16T03:55:24;17.10;;;12.60;;
6376;SDS011;3221;48.858;10.128;2023-05-16T03:57:51;15.70;;;13.60;;
6376;SDS011;3221;48.858;10.128;2023-05-16T04:00:18;15.97;;;13.30;;
6376;SDS011;3221;48.858;10.128;2023-05-16T04:02:45;16.20;;;13.47;;
6376;SDS011;3221;48.858;10.128;2023-05-16T04:05:12;17.83;;;13.50;;
6376;SDS011;3221;48.858;10.128;2023-05-16T04:07:39;15.87;;;13.40;;
6376;SDS011;3221;48.858;10.128;2023-05-16T04:10:07;16.53;;;13.07;;
6376;SDS011;3221;48.858;10.128;2023-05-16T04:12:35;16.30;;;13.63;;
6376;SDS011;3221;48.858;10.128;2023-05-16T04:15:02;15.60;;;12.97;;
6376;SDS011;3221;48.858;10.128;2023-05-16T04:17:30;16.97;;;12.57;;
6376;SDS011;3221;48.858;10.128;2023-05-16T04:19:57;16.70;;;13.10;;
6376;SDS011;3221;48.858;10.128;2023-05-16T04:22:25;16.13;;;12.30;;
6376;SDS011;3221;48.858;10.128;2023-05-16T04:24:52;16.80;;;12.77;;
6376;SDS011;3221;48.858;10.128;2023-05-16T04:27:19;14.63;;;12.47;;
6376;SDS011;3221;48.858;10.128;2023-05-16T04:29:46;17.90;;;13.57;;
6376;SDS011;3221;48.858;10.128;2023-05-16T04:32:13;17.33;;;14.03;;
6376;SDS011;3221;48.858;10.128;2023-05-16T04:34:40;17.33;;;13.83;;
6376;SDS011;3221;48.858;10.128;2023-05-16T04:37:09;15.00;;;13.00;;
6376;SDS011;3221;48.858;10.128;2023-05-16T04:39:36;17.37;;;13.83;;
6376;SDS011;3221;48.858;10.128;2023-05-16T04:42:04;17.10;;;14.07;;
6376;SDS011;3221;48.858;10.128;2023-05-16T04:44:31;17.37;;;14.07;;
6376;SDS011;3221;48.858;10.128;2023-05-16T04:46:58;18.90;;;15.27;;
6376;SDS011;3221;48.858;10.128;2023-05-16T04:49:25;17.90;;;15.67;;
6376;SDS011;3221;48.858;10.128;2023-05-16T04:51:52;21.77;;;15.30;;
6376;SDS011;3221;48.858;10.128;2023-05-16T04:54:18;17.80;;;15.37;;
6376;SDS011;3221;48.858;10.128;2023-05-16T04:56:45;18.73;;;15.27;;
6376;SDS011;3221;48.858;10.128;2023-05-16T04:59:12;18.03;;;15.17;;
6376;SDS011;3221;48.858;10.128;2023-05-16T05:01:40;20.97;;;16.00;;
6376;SDS011;3221;48.858;10.128;2023-05-16T05:04:07;18.43;;;15.80;;
6376;SDS011;3221;48.858;10.128;2023-05-16T05:06:34;19.03;;;15.13;;
6376;SDS011;3221;48.858;10.128;2023-05-16T05:09:01;19.30;;;16.00;;
6376;SDS011;3221;48.858;10.128;2023-05-16T05:11:28;21.87;;;16.67;;
6376;SDS011;3221;48.858;10.128;2023-05-16T05:13:55;18.23;;;15.33;;
6376;SDS011;3221;48.858;10.128;2023-05-16T05:16:22;23.43;;;17.47;;
6376;SDS011;3221;48.858;10.128;2023-05-16T05:18:48;22.17;;;17.27;;
6376;SDS011;3221;48.858;10.128;2023-05-16T05:21:16;21.40;;;17.03;;
6376;SDS011;3221;48.858;10.128;2023-05-16T05:23:43;20.70;;;17.70;;
6376;SDS011;3221;48.858;10.128;2023-05-16T05:26:11;21.93;;;17.40;;
6376;SDS011;3221;48.858;10.128;2023-05-16T05:28:38;21.47;;;16.77;;
6376;SDS011;3221;48.858;10.128;2023-05-16T05:31:08;20.67;;;17.47;;
6376;SDS011;3221;48.858;10.128;2023-05-16T05:33:36;20.77;;;16.80;;
6376;SDS011;3221;48.858;10.128;2023-05-16T05:36:03;19.33;;;16.70;;
6376;SDS011;3221;48.858;10.128;2023-05-16T05:38:30;20.33;;;16.70;;
6376;SDS011;3221;48.858;10.128;2023-05-16T05:40:57;19.83;;;16.43;;
6376;SDS011;3221;48.858;10.128;2023-05-16T05:43:24;22.93;;;16.90;;
6376;SDS011;3221;48.858;10.128;2023-05-16T05:45:51;24.37;;;17.83;;
6376;SDS011;3221;48.858;10.128;2023-05-16T05:48:18;22.30;;;17.33;;
6376;SDS011;3221;48.858;10.128;2023-05-16T05:50:45;23.27;;;17.73;;
6376;SDS011;3221;48.858;10.128;2023-05-16T05:53:12;21.90;;;16.87;;
6376;SDS011;3221;48.858;10.128;2023-05-16T05:55:38;21.83;;;17.53;;
6376;SDS011;3221;48.858;10.128;2023-05-16T05:58:07;22.57;;;17.40;;
6376;SDS011;3221;48.858;10.128;2023-05-16T06:00:34;22.10;;;17.03;;
6376;SDS011;3221;48.858;10.128;2023-05-16T06:03:01;22.33;;;17.30;;
6376;SDS011;3221;48.858;10.128;2023-05-16T06:05:28;21.57;;;17.80;;
6376;SDS011;3221;48.858;10.128;2023-05-16T06:07:56;20.23;;;16.60;;
6376;SDS011;3221;48.858;10.128;2023-05-16T06:10:23;20.47;;;16.93;;
6376;SDS011;3221;48.858;10.128;2023-05-16T06:12:50;21.83;;;17.10;;
6376;SDS011;3221;48.858;10.128;2023-05-16T06:15:17;22.23;;;17.40;;
6376;SDS011;3221;48.858;10.128;2023-05-16T06:17:44;22.10;;;17.30;;
6376;SDS011;3221;48.858;10.128;2023-05-16T06:20:11;20.67;;;17.27;;
6376;SDS011;3221;48.858;10.128;2023-05-16T06:22:38;20.83;;;17.20;;
6376;SDS011;3221;48.858;10.128;2023-05-16T06:25:05;21.60;;;16.60;;
6376;SDS011;3221;48.858;10.128;2023-05-16T06:27:32;22.80;;;18.77;;
6376;SDS011;3221;48.858;10.128;2023-05-16T06:29:59;22.00;;;17.67;;
6376;SDS011;3221;48.858;10.128;2023-05-16T06:32:26;21.80;;;18.43;;
6376;SDS011;3221;48.858;10.128;2023-05-16T06:34:53;20.13;;;17.17;;
6376;SDS011;3221;48.858;10.128;2023-05-16T06:37:20;23.93;;;19.13;;
6376;SDS011;3221;48.858;10.128;2023-05-16T06:39:48;20.03;;;16.50;;
6376;SDS011;3221;48.858;10.128;2023-05-16T06:42:16;19.13;;;16.40;;
6376;SDS011;3221;48.858;10.128;2023-05-16T06:44:43;21.43;;;16.83;;
6376;SDS011;3221;48.858;10.128;2023-05-16T06:47:10;21.77;;;16.47;;
6376;SDS011;3221;48.858;10.128;2023-05-16T06:49:37;19.53;;;16.17;;
6376;SDS011;3221;48.858;10.128;2023-05-16T06:52:04;16.80;;;14.77;;
6376;SDS011;3221;48.858;10.128;2023-05-16T06:54:31;20.03;;;16.63;;
6376;SDS011;3221;48.858;10.128;2023-05-16T06:56:58;21.07;;;17.03;;
6376;SDS011;3221;48.858;10.128;2023-05-16T06:59:25;18.33;;;15.97;;
6376;SDS011;3221;48.858;10.128;2023-05-16T07:01:53;19.37;;;16.27;;
6376;SDS011;3221;48.858;10.128;2023-05-16T07:04:20;18.83;;;16.63;;
6376;SDS011;3221;48.858;10.128;2023-05-16T07:06:47;19.33;;;15.80;;
6376;SDS011;3221;48.858;10.128;2023-05-16T07:09:14;21.23;;;16.40;;
6376;SDS011;3221;48.858;10.128;2023-05-16T07:11:41;19.80;;;15.00;;
6376;SDS011;3221;48.858;10.128;2023-05-16T07:14:08;18.80;;;16.27;;
6376;SDS011;3221;48.858;10.128;2023-05-16T07:16:35;17.90;;;15.40;;
6376;SDS011;3221;48.858;10.128;2023-05-16T07:19:03;19.50;;;15.30;;
6376;SDS011;3221;48.858;10.128;2023-05-16T07:21:30;21.80;;;17.63;;
6376;SDS011;3221;48.858;10.128;2023-05-16T07:23:57;19.03;;;16.07;;
6376;SDS011;3221;48.858;10.128;2023-05-16T07:26:24;18.83;;;15.93;;
6376;SDS011;3221;48.858;10.128;2023-05-16T07:28:51;18.83;;;16.40;;
6376;SDS011;3221;48.858;10.128;2023-05-16T07:31:18;21.17;;;16.77;;
6376;SDS011;3221;48.858;10.128;2023-05-16T07:33:46;18.03;;;15.10;;
6376;SDS011;3221;48.858;10.128;2023-05-16T07:36:14;18.93;;;16.40;;
6376;SDS011;3221;48.858;10.128;2023-05-16T07:38:43;20.87;;;15.73;;
6376;SDS011;3221;48.858;10.128;2023-05-16T07:41:10;21.10;;;16.10;;
6376;SDS011;3221;48.858;10.128;2023-05-16T07:43:37;20.53;;;16.37;;
6376;SDS011;3221;48.858;10.128;2023-05-16T07:46:04;19.10;;;15.47;;
6376;SDS011;3221;48.858;10.128;2023-05-16T07:48:32;19.23;;;16.50;;
6376;SDS011;3221;48.858;10.128;2023-05-16T07:50:59;20.17;;;17.30;;
6376;SDS011;3221;48.858;10.128;2023-05-16T07:53:26;19.53;;;15.57;;
6376;SDS011;3221;48.858;10.128;2023-05-16T07:55:53;19.93;;;16.40;;
6376;SDS011;3221;48.858;10.128;2023-05-16T07:58:20;20.83;;;17.30;;
6376;SDS011;3221;48.858;10.128;2023-05-16T08:00:47;23.17;;;17.53;;
6376;SDS011;3221;48.858;10.128;2023-05-16T08:03:14;18.93;;;16.50;;
6376;SDS011;3221;48.858;10.128;2023-05-16T08:05:41;18.70;;;16.43;;
6376;SDS011;3221;48.858;10.128;2023-05-16T08:08:09;20.17;;;16.40;;
6376;SDS011;3221;48.858;10.128;2023-05-16T08:10:36;18.07;;;15.77;;
6376;SDS011;3221;48.858;10.128;2023-05-16T08:13:03;20.80;;;16.63;;
6376;SDS011;3221;48.858;10.128;2023-05-16T08:15:30;20.60;;;16.47;;
6376;SDS011;3221;48.858;10.128;2023-05-16T08:17:57;18.87;;;15.80;;
6376;SDS011;3221;48.858;10.128;2023-05-16T08:20:24;19.53;;;16.27;;
6376;SDS011;3221;48.858;10.128;2023-05-16T08:22:52;18.13;;;15.70;;
6376;SDS011;3221;48.858;10.128;2023-05-16T08:25:19;18.93;;;16.60;;
6376;SDS011;3221;48.858;10.128;2023-05-16T08:27:48;19.87;;;16.37;;
6376;SDS011;3221;48.858;10.128;2023-05-16T08:30:16;20.63;;;16.80;;
6376;SDS011;3221;48.858;10.128;2023-05-16T08:32:43;22.27;;;16.50;;
6376;SDS011;3221;48.858;10.128;2023-05-16T08:35:10;22.57;;;17.17;;
6376;SDS011;3221;48.858;10.128;2023-05-16T08:37:38;20.57;;;16.40;;
6376;SDS011;3221;48.858;10.128;2023-05-16T08:40:05;21.03;;;16.20;;
6376;SDS011;3221;48.858;10.128;2023-05-16T08:42:36;23.27;;;15.83;;
6376;SDS011;3221;48.858;10.128;2023-05-16T08:45:03;20.43;;;17.73;;
6376;SDS011;3221;48.858;10.128;2023-05-16T08:47:32;21.63;;;17.63;;
6376;SDS011;3221;48.858;10.128;2023-05-16T08:50:02;20.00;;;16.10;;
6376;SDS011;3221;48.858;10.128;2023-05-16T08:52:30;21.33;;;16.90;;
6376;SDS011;3221;48.858;10.128;2023-05-16T08:55:02;22.47;;;16.53;;
6376;SDS011;3221;48.858;10.128;2023-05-16T08:57:37;20.30;;;16.67;;
6376;SDS011;3221;48.858;10.128;2023-05-16T09:00:06;21.97;;;17.13;;
6376;SDS011;3221;48.858;10.128;2023-05-16T09:02:41;19.13;;;16.53;;
6376;SDS011;3221;48.858;10.128;2023-05-16T09:05:13;18.57;;;15.63;;
6376;SDS011;3221;48.858;10.128;2023-05-16T09:07:41;18.47;;;15.90;;
6376;SDS011;3221;48.858;10.128;2023-05-16T09:10:09;18.77;;;15.33;;
6376;SDS011;3221;48.858;10.128;2023-05-16T09:12:38;17.60;;;15.30;;
6376;SDS011;3221;48.858;10.128;2023-05-16T09:15:06;19.37;;;15.97;;
6376;SDS011;3221;48.858;10.128;2023-05-16T09:25:23;19.77;;;15.13;;
6376;SDS011;3221;48.858;10.128;2023-05-16T09:27:58;17.00;;;14.60;;
6376;SDS011;3221;48.858;10.128;2023-05-16T09:30:29;19.30;;;14.77;;
6376;SDS011;3221;48.858;10.128;2023-05-16T09:32:57;19.10;;;14.87;;
6376;SDS011;3221;48.858;10.128;2023-05-16T09:35:25;21.80;;;15.43;;
6376;SDS011;3221;48.858;10.128;2023-05-16T09:38:13;20.83;;;15.47;;
6376;SDS011;3221;48.858;10.128;2023-05-16T09:40:42;17.27;;;14.33;;
6376;SDS011;3221;48.858;10.128;2023-05-16T09:43:09;18.27;;;15.23;;
6376;SDS011;3221;48.858;10.128;2023-05-16T09:45:46;17.63;;;13.63;;
6376;SDS011;3221;48.858;10.128;2023-05-16T09:48:14;17.20;;;14.40;;
6376;SDS011;3221;48.858;10.128;2023-05-16T09:50:49;14.90;;;13.30;;
6376;SDS011;3221;48.858;10.128;2023-05-16T09:53:27;16.47;;;13.77;;
6376;SDS011;3221;48.858;10.128;2023-05-16T09:56:05;18.67;;;14.10;;
6376;SDS011;3221;48.858;10.128;2023-05-16T09:58:39;16.10;;;13.83;;
6376;SDS011;3221;48.858;10.128;2023-05-16T10:01:08;16.43;;;13.30;;
6376;SDS011;3221;48.858;10.128;2023-05-16T10:03:37;17.07;;;13.40;;
6376;SDS011;3221;48.858;10.128;2023-05-16T10:06:06;17.33;;;14.43;;
6376;SDS011;3221;48.858;10.128;2023-05-16T10:08:35;16.57;;;13.47;;
6376;SDS011;3221;48.858;10.128;2023-05-16T10:11:03;16.33;;;13.53;;
6376;SDS011;3221;48.858;10.128;2023-05-16T10:13:32;17.30;;;13.20;;
6376;SDS011;3221;48.858;10.128;2023-05-16T10:16:01;15.83;;;13.17;;
6376;SDS011;3221;48.858;10.128;2023-05-16T10:18:34;16.83;;;12.90;;
6376;SDS011;3221;48.858;10.128;2023-05-16T10:21:07;16.57;;;13.47;;
6376;SDS011;3221;48.858;10.128;2023-05-16T10:23:38;16.00;;;12.60;;
6376;SDS011;3221;48.858;10.128;2023-05-16T10:26:08;15.87;;;12.43;;
6376;SDS011;3221;48.858;10.128;2023-05-16T10:28:36;15.13;;;13.03;;
6376;SDS011;3221;48.858;10.128;2023-05-16T10:31:05;17.37;;;12.97;;
6376;SDS011;3221;48.858;10.128;2023-05-16T10:33:34;17.43;;;13.13;;
6376;SDS011;3221;48.858;10.128;2023-05-16T10:36:01;17.23;;;14.30;;
6376;SDS011;3221;48.858;10.128;2023-05-16T10:38:30;15.30;;;13.00;;
6376;SDS011;3221;48.858;10.128;2023-05-16T10:40:59;15.73;;;12.83;;
6376;SDS011;3221;48.858;10.128;2023-05-16T10:43:27;16.17;;;13.87;;
6376;SDS011;3221;48.858;10.128;2023-05-16T10:45:57;16.93;;;14.27;;
6376;SDS011;3221;48.858;10.128;2023-05-16T10:48:38;16.33;;;13.37;;
6376;SDS011;3221;48.858;10.128;2023-05-16T10:53:52;17.53;;;13.83;;
6376;SDS011;3221;48.858;10.128;2023-05-16T10:56:23;16.20;;;14.43;;
6376;SDS011;3221;48.858;10.128;2023-05-16T10:58:52;17.03;;;14.33;;
6376;SDS011;3221;48.858;10.128;2023-05-16T11:14:25;16.73;;;13.77;;
6376;SDS011;3221;48.858;10.128;2023-05-16T11:19:33;17.77;;;14.17;;
6376;SDS011;3221;48.858;10.128;2023-05-16T11:24:50;18.03;;;14.00;;
6376;SDS011;3221;48.858;10.128;2023-05-16T11:27:20;18.53;;;13.30;;
6376;SDS011;3221;48.858;10.128;2023-05-16T11:29:49;16.40;;;13.33;;
6376;SDS011;3221;48.858;10.128;2023-05-16T11:32:18;15.97;;;13.00;;
6376;SDS011;3221;48.858;10.128;2023-05-16T11:34:50;16.00;;;12.80;;
6376;SDS011;3221;48.858;10.128;2023-05-16T11:37:18;15.80;;;13.27;;
6376;SDS011;3221;48.858;10.128;2023-05-16T11:39:46;18.57;;;13.73;;
6376;SDS011;3221;48.858;10.128;2023-05-16T11:42:13;16.60;;;13.03;;
6376;SDS011;3221;48.858;10.128;2023-05-16T11:44:40;16.93;;;13.67;;
6376;SDS011;3221;48.858;10.128;2023-05-16T11:47:07;15.50;;;12.83;;
6376;SDS011;3221;48.858;10.128;2023-05-16T11:49:34;15.17;;;12.90;;
6376;SDS011;3221;48.858;10.128;2023-05-16T11:52:02;15.47;;;12.60;;
6376;SDS011;3221;48.858;10.128;2023-05-16T11:54:30;16.27;;;12.50;;
6376;SDS011;3221;48.858;10.128;2023-05-16T11:56:57;13.70;;;11.23;;
6376;SDS011;3221;48.858;10.128;2023-05-16T11:59:25;14.47;;;12.50;;
6376;SDS011;3221;48.858;10.128;2023-05-16T12:01:52;13.70;;;11.73;;
6376;SDS011;3221;48.858;10.128;2023-05-16T12:04:19;13.13;;;11.23;;
6376;SDS011;3221;48.858;10.128;2023-05-16T12:06:56;13.63;;;11.60;;
6376;SDS011;3221;48.858;10.128;2023-05-16T12:09:26;13.87;;;10.53;;
6376;SDS011;3221;48.858;10.128;2023-05-16T12:11:53;12.73;;;10.70;;
6376;SDS011;3221;48.858;10.128;2023-05-16T12:14:20;13.90;;;11.20;;
6376;SDS011;3221;48.858;10.128;2023-05-16T12:16:48;11.70;;;10.00;;
6376;SDS011;3221;48.858;10.128;2023-05-16T12:19:18;12.17;;;10.30;;
6376;SDS011;3221;48.858;10.128;2023-05-16T12:21:45;11.77;;;10.50;;
6376;SDS011;3221;48.858;10.128;2023-05-16T12:24:12;12.47;;;10.43;;
6376;SDS011;3221;48.858;10.128;2023-05-16T12:26:39;12.13;;;10.10;;
6376;SDS011;3221;48.858;10.128;2023-05-16T12:29:07;11.70;;;9.77;;
6376;SDS011;3221;48.858;10.128;2023-05-16T12:31:37;11.87;;;9.80;;
6376;SDS011;3221;48.858;10.128;2023-05-16T12:34:16;12.03;;;9.90;;
6376;SDS011;3221;48.858;10.128;2023-05-16T12:36:44;13.13;;;10.70;;
6376;SDS011;3221;48.858;10.128;2023-05-16T12:39:15;15.43;;;11.07;;
6376;SDS011;3221;48.858;10.128;2023-05-16T12:41:43;12.63;;;9.97;;
6376;SDS011;3221;48.858;10.128;2023-05-16T12:44:13;12.83;;;10.47;;
6376;SDS011;3221;48.858;10.128;2023-05-16T12:46:43;12.33;;;10.73;;
6376;SDS011;3221;48.858;10.128;2023-05-16T12:49:20;14.77;;;10.70;;
6376;SDS011;3221;48.858;10.128;2023-05-16T12:51:48;14.57;;;11.23;;
6376;SDS011;3221;48.858;10.128;2023-05-16T12:54:20;13.83;;;10.70;;
6376;SDS011;3221;48.858;10.128;2023-05-16T12:56:48;14.63;;;11.20;;
6376;SDS011;3221;48.858;10.128;2023-05-16T12:59:15;13.10;;;11.17;;
6376;SDS011;3221;48.858;10.128;2023-05-16T13:01:42;15.03;;;11.27;;
6376;SDS011;3221;48.858;10.128;2023-05-16T13:04:11;14.07;;;11.30;;
6376;SDS011;3221;48.858;10.128;2023-05-16T13:06:43;16.13;;;11.60;;
6376;SDS011;3221;48.858;10.128;2023-05-16T13:09:24;13.00;;;11.00;;
6376;SDS011;3221;48.858;10.128;2023-05-16T13:11:57;17.00;;;11.03;;
6376;SDS011;3221;48.858;10.128;2023-05-16T13:14:25;16.20;;;10.90;;
6376;SDS011;3221;48.858;10.128;2023-05-16T13:16:54;13.20;;;11.10;;
6376;SDS011;3221;48.858;10.128;2023-05-16T13:19:21;15.47;;;10.90;;
6376;SDS011;3221;48.858;10.128;2023-05-16T13:21:49;13.67;;;10.63;;
6376;SDS011;3221;48.858;10.128;2023-05-16T13:24:16;14.83;;;11.67;;
6376;SDS011;3221;48.858;10.128;2023-05-16T13:26:43;14.13;;;10.60;;
6376;SDS011;3221;48.858;10.128;2023-05-16T13:29:10;12.90;;;10.00;;
6376;SDS011;3221;48.858;10.128;2023-05-16T13:31:38;14.07;;;10.50;;
6376;SDS011;3221;48.858;10.128;2023-05-16T13:34:05;13.83;;;10.20;;
6376;SDS011;3221;48.858;10.128;2023-05-16T13:36:32;13.23;;;9.73;;
6376;SDS011;3221;48.858;10.128;2023-05-16T13:39:15;11.20;;;9.97;;
6376;SDS011;3221;48.858;10.128;2023-05-16T13:41:42;14.17;;;8.90;;
6376;SDS011;3221;48.858;10.128;2023-05-16T13:44:11;13.20;;;10.00;;
6376;SDS011;3221;48.858;10.128;2023-05-16T13:46:38;12.63;;;9.57;;
6376;SDS011;3221;48.858;10.128;2023-05-16T13:49:05;12.30;;;9.93;;
6376;SDS011;3221;48.858;10.128;2023-05-16T13:51:32;11.73;;;9.37;;
6376;SDS011;3221;48.858;10.128;2023-05-16T13:53:59;12.67;;;9.50;;
6376;SDS011;3221;48.858;10.128;2023-05-16T13:56:26;11.07;;;9.27;;
6376;SDS011;3221;48.858;10.128;2023-05-16T13:58:54;11.23;;;8.90;;
6376;SDS011;3221;48.858;10.128;2023-05-16T14:01:32;10.87;;;8.73;;
6376;SDS011;3221;48.858;10.128;2023-05-16T14:03:59;10.87;;;8.03;;
6376;SDS011;3221;48.858;10.128;2023-05-16T14:06:26;10.57;;;8.03;;
6376;SDS011;3221;48.858;10.128;2023-05-16T14:08:53;11.00;;;8.00;;
6376;SDS011;3221;48.858;10.128;2023-05-16T14:11:24;8.90;;;7.53;;
6376;SDS011;3221;48.858;10.128;2023-05-16T14:13:55;10.47;;;7.37;;
6376;SDS011;3221;48.858;10.128;2023-05-16T14:16:23;8.73;;;7.13;;
6376;SDS011;3221;48.858;10.128;2023-05-16T14:18:51;9.60;;;7.07;;
6376;SDS011;3221;48.858;10.128;2023-05-16T14:21:18;9.67;;;6.83;;
6376;SDS011;3221;48.858;10.128;2023-05-16T14:23:45;9.60;;;7.07;;
6376;SDS011;3221;48.858;10.128;2023-05-16T14:26:12;7.20;;;6.30;;
6376;SDS011;3221;48.858;10.128;2023-05-16T14:28:39;8.17;;;6.50;;
6376;SDS011;3221;48.858;10.128;2023-05-16T14:31:06;7.47;;;6.10;;
6376;SDS011;3221;48.858;10.128;2023-05-16T14:33:34;6.77;;;5.90;;
6376;SDS011;3221;48.858;10.128;2023-05-16T14:36:01;7.83;;;6.13;;
6376;SDS011;3221;48.858;10.128;2023-05-16T14:38:28;8.73;;;6.23;;
6376;SDS011;3221;48.858;10.128;2023-05-16T14:40:55;6.93;;;6.13;;
6376;SDS011;3221;48.858;10.128;2023-05-16T14:43:22;6.70;;;5.50;;
6376;SDS011;3221;48.858;10.128;2023-05-16T14:45:49;6.70;;;5.70;;
6376;SDS011;3221;48.858;10.128;2023-05-16T14:48:16;7.10;;;5.77;;
6376;SDS011;3221;48.858;10.128;2023-05-16T14:50:43;5.60;;;4.90;;
6376;SDS011;3221;48.858;10.128;2023-05-16T14:53:10;7.43;;;5.20;;
6376;SDS011;3221;48.858;10.128;2023-05-16T14:55:37;5.83;;;5.23;;
6376;SDS011;3221;48.858;10.128;2023-05-16T14:58:04;6.30;;;4.97;;
6376;SDS011;3221;48.858;10.128;2023-05-16T15:00:31;6.70;;;4.40;;
6376;SDS011;3221;48.858;10.128;2023-05-16T15:02:59;5.80;;;4.73;;
6376;SDS011;3221;48.858;10.128;2023-05-16T15:05:26;6.17;;;4.73;;
6376;SDS011;3221;48.858;10.128;2023-05-16T15:07:54;4.83;;;4.33;;
6376;SDS011;3221;48.858;10.128;2023-05-16T15:10:21;5.13;;;4.63;;
6376;SDS011;3221;48.858;10.128;2023-05-16T15:12:49;4.40;;;4.00;;
6376;SDS011;3221;48.858;10.128;2023-05-16T15:15:16;5.60;;;4.20;;
6376;SDS011;3221;48.858;10.128;2023-05-16T15:17:43;4.60;;;3.77;;
6376;SDS011;3221;48.858;10.128;2023-05-16T15:20:10;5.70;;;3.97;;
6376;SDS011;3221;48.858;10.128;2023-05-16T15:22:38;5.87;;;4.00;;
6376;SDS011;3221;48.858;10.128;2023-05-16T15:25:08;4.43;;;4.00;;
6376;SDS011;3221;48.858;10.128;2023-05-16T15:27:36;4.67;;;3.83;;
6376;SDS011;3221;48.858;10.128;2023-05-16T15:30:03;4.23;;;3.83;;